createdAt,value
2022-11-30T00:00:15.710Z,97086.59
2022-11-30T00:01:17.541Z,97090.13
2022-11-30T00:02:19.509Z,97090.44
2022-11-30T00:03:21.570Z,97087.34
2022-11-30T00:04:23.456Z,97088.28
2022-11-30T00:05:25.488Z,97085.22
2022-11-30T00:06:27.466Z,97075.06
2022-11-30T00:07:29.400Z,97079.41
2022-11-30T00:08:31.284Z,97073.59
2022-11-30T00:09:33.305Z,97079.41
2022-11-30T00:10:35.069Z,97083.59
2022-11-30T00:11:37.079Z,97082.66
2022-11-30T00:12:42.398Z,97091.03
2022-11-30T00:13:44.549Z,97084.38
2022-11-30T00:14:46.983Z,97090.38
2022-11-30T00:15:49.146Z,97094.28
2022-11-30T00:16:51.145Z,97092.34
2022-11-30T00:17:56.707Z,97090.56
2022-11-30T00:18:58.632Z,97096.03
2022-11-30T00:20:00.510Z,97095.81
2022-11-30T00:21:03.095Z,97097.06
2022-11-30T00:22:04.975Z,97093.16
2022-11-30T00:23:10.229Z,97100.09
2022-11-30T00:24:12.080Z,97096.53
2022-11-30T00:25:13.938Z,97105.78
2022-11-30T00:26:17.805Z,97103.03
2022-11-30T00:27:19.840Z,97109.00
2022-11-30T00:28:21.719Z,97101.09
2022-11-30T00:29:23.602Z,97099.50
2022-11-30T00:30:25.464Z,97108.84
2022-11-30T00:31:27.353Z,97108.69
2022-11-30T00:32:29.253Z,97107.59
2022-11-30T00:33:34.601Z,97111.66
2022-11-30T00:34:36.456Z,97109.72
2022-11-30T00:35:38.317Z,97110.53
2022-11-30T00:36:40.164Z,97116.50
2022-11-30T00:37:42.103Z,97113.25
2022-11-30T00:38:44.284Z,97119.22
2022-11-30T00:39:46.217Z,97116.50
2022-11-30T00:40:48.050Z,97118.13
2022-11-30T00:41:49.915Z,97115.56
2022-11-30T00:42:51.793Z,97116.50
2022-11-30T00:43:53.688Z,97117.47
2022-11-30T00:44:55.510Z,97123.56
2022-11-30T00:45:57.621Z,97120.03
2022-11-30T00:46:59.548Z,97125.19
2022-11-30T00:48:01.383Z,97125.19
2022-11-30T00:49:03.378Z,97120.03
2022-11-30T00:50:05.483Z,97121.66
2022-11-30T00:51:08.123Z,97128.78
2022-11-30T00:52:09.929Z,97131.59
2022-11-30T00:53:11.913Z,97136.53
2022-11-30T00:54:14.219Z,97128.16
2022-11-30T00:55:16.076Z,97129.47
2022-11-30T00:56:17.989Z,97133.50
2022-11-30T00:57:19.852Z,97131.47
2022-11-30T00:58:21.835Z,97131.00
2022-11-30T00:59:23.736Z,97132.47
2022-11-30T01:00:25.705Z,97126.88
2022-11-30T01:01:27.700Z,97133.53
2022-11-30T01:02:29.581Z,97131.22
2022-11-30T01:03:31.476Z,97130.50
2022-11-30T01:04:33.452Z,97135.28
2022-11-30T01:05:35.967Z,97131.59
2022-11-30T01:06:38.478Z,97124.81
2022-11-30T01:07:40.475Z,97132.53
2022-11-30T01:08:42.321Z,97132.25
2022-11-30T01:09:44.205Z,97131.00
2022-11-30T01:10:47.969Z,97132.34
2022-11-30T01:11:50.393Z,97135.38
2022-11-30T01:12:52.316Z,97131.38
2022-11-30T01:13:55.463Z,97132.63
2022-11-30T01:14:57.366Z,97131.66
2022-11-30T01:15:59.359Z,97131.88
2022-11-30T01:17:01.355Z,97134.19
2022-11-30T01:18:03.264Z,97136.44
2022-11-30T01:19:05.201Z,97129.38
2022-11-30T01:20:08.315Z,97135.06
2022-11-30T01:21:11.155Z,97130.56
2022-11-30T01:22:12.998Z,97135.56
2022-11-30T01:23:14.931Z,97134.59
2022-11-30T01:24:16.815Z,97136.38
2022-11-30T01:25:18.763Z,97132.69
2022-11-30T01:26:20.751Z,97134.31
2022-11-30T01:27:22.609Z,97127.41
2022-11-30T01:28:24.495Z,97133.06
2022-11-30T01:29:26.401Z,97131.28
2022-11-30T01:30:28.331Z,97134.53
2022-11-30T01:31:30.124Z,97137.41
2022-11-30T01:32:32.014Z,97141.84
2022-11-30T01:33:34.077Z,97141.09
2022-11-30T01:34:35.857Z,97138.00
2022-11-30T01:35:37.751Z,97135.22
2022-11-30T01:36:39.673Z,97130.06
2022-11-30T01:37:41.546Z,97124.06
2022-11-30T01:38:47.784Z,97124.91
2022-11-30T01:39:49.691Z,97126.38
2022-11-30T01:40:51.688Z,97124.31
2022-11-30T01:41:55.075Z,97121.56
2022-11-30T01:42:56.929Z,97123.06
2022-11-30T01:44:20.243Z,97129.97
2022-11-30T01:45:22.226Z,97124.81
2022-11-30T01:46:38.974Z,97128.50
2022-11-30T01:47:52.933Z,97128.50
2022-11-30T01:49:10.062Z,97124.31
2022-11-30T01:50:15.464Z,97128.44
2022-11-30T01:51:17.295Z,97124.38
2022-11-30T01:52:20.962Z,97133.06
2022-11-30T01:53:24.417Z,97126.13
2022-11-30T01:54:32.558Z,97124.06
2022-11-30T01:55:36.590Z,97126.22
2022-11-30T01:56:41.236Z,97129.31
2022-11-30T01:57:47.314Z,97124.00
2022-11-30T01:58:49.334Z,97126.44
2022-11-30T01:59:52.407Z,97116.94
2022-11-30T02:00:54.344Z,97118.28
2022-11-30T02:01:56.863Z,97123.16
2022-11-30T02:03:18.829Z,97123.81
2022-11-30T02:04:38.950Z,97120.41
2022-11-30T02:05:41.970Z,97126.88
2022-11-30T02:06:44.516Z,97123.22
2022-11-30T02:07:46.473Z,97131.59
2022-11-30T02:08:48.440Z,97128.06
2022-11-30T02:09:50.310Z,97126.44
2022-11-30T02:10:53.796Z,97123.88
2022-11-30T02:11:57.062Z,97130.50
2022-11-30T02:13:19.468Z,97120.03
2022-11-30T02:14:24.358Z,97127.78
2022-11-30T02:15:29.800Z,97126.94
2022-11-30T02:16:53.670Z,97128.72
2022-11-30T02:17:58.403Z,97129.53
2022-11-30T02:19:18.137Z,97135.50
2022-11-30T02:20:38.625Z,97135.78
2022-11-30T02:21:46.642Z,97133.13
2022-11-30T02:22:48.430Z,97137.28
2022-11-30T02:23:56.312Z,97136.31
2022-11-30T02:25:07.736Z,97134.53
2022-11-30T02:26:09.572Z,97141.78
2022-11-30T02:27:14.360Z,97142.72
2022-11-30T02:28:19.194Z,97135.13
2022-11-30T02:29:23.892Z,97139.47
2022-11-30T02:30:26.017Z,97137.88
2022-11-30T02:31:31.687Z,97140.28
2022-11-30T02:32:40.561Z,97134.69
2022-11-30T02:33:43.318Z,97133.44
2022-11-30T02:34:47.570Z,97130.56
2022-11-30T02:35:54.855Z,97132.78
2022-11-30T02:36:58.713Z,97128.56
2022-11-30T02:38:01.415Z,97135.19
2022-11-30T02:39:03.436Z,97129.75
2022-11-30T02:40:13.987Z,97139.75
2022-11-30T02:41:15.926Z,97132.56
2022-11-30T02:42:17.780Z,97133.34
2022-11-30T02:43:21.480Z,97131.59
2022-11-30T02:44:24.830Z,97126.44
2022-11-30T02:45:41.124Z,97130.78
2022-11-30T02:46:42.976Z,97133.22
2022-11-30T02:47:48.832Z,97129.53
2022-11-30T02:48:57.056Z,97133.88
2022-11-30T02:50:01.280Z,97132.56
2022-11-30T02:51:05.127Z,97140.28
2022-11-30T02:52:08.495Z,97132.78
2022-11-30T02:53:10.524Z,97130.50
2022-11-30T02:54:12.748Z,97133.88
2022-11-30T02:55:16.380Z,97125.47
2022-11-30T02:56:19.056Z,97126.97
2022-11-30T02:57:20.848Z,97127.47
2022-11-30T02:58:22.852Z,97129.09
2022-11-30T02:59:24.803Z,97128.13
2022-11-30T03:00:26.745Z,97126.88
2022-11-30T03:01:28.670Z,97141.09
2022-11-30T03:02:30.600Z,97141.75
2022-11-30T03:03:32.644Z,97135.50
2022-11-30T03:04:34.518Z,97140.66
2022-11-30T03:05:36.340Z,97145.81
2022-11-30T03:06:38.249Z,97148.41
2022-11-30T03:07:40.082Z,97140.81
2022-11-30T03:08:42.075Z,97141.31
2022-11-30T03:09:43.997Z,97138.59
2022-11-30T03:10:45.843Z,97142.13
2022-11-30T03:11:47.816Z,97141.19
2022-11-30T03:12:49.729Z,97140.22
2022-11-30T03:13:51.784Z,97143.59
2022-11-30T03:14:53.734Z,97142.34
2022-11-30T03:15:55.637Z,97138.81
2022-11-30T03:16:57.797Z,97141.38
2022-11-30T03:18:02.288Z,97141.75
2022-11-30T03:19:04.210Z,97141.31
2022-11-30T03:20:06.533Z,97137.94
2022-11-30T03:21:08.935Z,97144.69
2022-11-30T03:22:10.767Z,97149.41
2022-11-30T03:23:12.666Z,97143.97
2022-11-30T03:24:14.615Z,97142.84
2022-11-30T03:25:16.447Z,97147.72
2022-11-30T03:26:18.313Z,97145.81
2022-11-30T03:27:20.184Z,97151.31
2022-11-30T03:28:22.115Z,97149.41
2022-11-30T03:29:23.995Z,97147.34
2022-11-30T03:30:25.839Z,97150.44
2022-11-30T03:31:27.836Z,97144.50
2022-11-30T03:32:31.315Z,97154.13
2022-11-30T03:33:33.220Z,97152.66
2022-11-30T03:34:35.164Z,97156.34
2022-11-30T03:35:37.101Z,97148.25
2022-11-30T03:36:38.993Z,97148.41
2022-11-30T03:37:40.839Z,97155.97
2022-11-30T03:38:42.678Z,97148.25
2022-11-30T03:39:44.720Z,97155.81
2022-11-30T03:40:46.495Z,97148.75
2022-11-30T03:41:48.422Z,97155.41
2022-11-30T03:42:50.315Z,97152.50
2022-11-30T03:43:52.213Z,97159.13
2022-11-30T03:44:54.205Z,97153.97
2022-11-30T03:45:56.155Z,97161.81
2022-11-30T03:46:57.991Z,97158.69
2022-11-30T03:47:59.801Z,97163.03
2022-11-30T03:49:01.757Z,97155.28
2022-11-30T03:50:03.932Z,97163.72
2022-11-30T03:51:05.924Z,97158.03
2022-11-30T03:52:07.784Z,97155.88
2022-11-30T03:53:09.598Z,97155.09
2022-11-30T03:54:11.516Z,97159.44
2022-11-30T03:55:13.462Z,97152.22
2022-11-30T03:56:15.982Z,97160.03
2022-11-30T03:57:17.868Z,97153.41
2022-11-30T03:58:19.778Z,97149.06
2022-11-30T03:59:21.575Z,97156.66
2022-11-30T04:00:23.443Z,97150.13
2022-11-30T04:01:25.432Z,97149.66
2022-11-30T04:02:27.318Z,97151.09
2022-11-30T04:03:29.660Z,97150.13
2022-11-30T04:04:31.538Z,97148.25
2022-11-30T04:05:33.414Z,97152.97
2022-11-30T04:06:35.443Z,97154.41
2022-11-30T04:07:37.341Z,97149.56
2022-11-30T04:08:39.650Z,97147.13
2022-11-30T04:09:41.503Z,97147.41
2022-11-30T04:10:43.463Z,97144.50
2022-11-30T04:11:45.297Z,97144.97
2022-11-30T04:12:47.213Z,97151.91
2022-11-30T04:13:49.081Z,97152.44
2022-11-30T04:14:50.993Z,97146.81
2022-11-30T04:15:53.906Z,97148.16
2022-11-30T04:16:55.862Z,97152.38
2022-11-30T04:17:57.843Z,97149.78
2022-11-30T04:18:59.762Z,97153.03
2022-11-30T04:20:01.571Z,97156.53
2022-11-30T04:21:04.035Z,97150.31
2022-11-30T04:22:05.941Z,97159.50
2022-11-30T04:23:07.998Z,97163.69
2022-11-30T04:24:09.911Z,97158.53
2022-11-30T04:25:11.812Z,97160.31
2022-11-30T04:26:15.717Z,97160.44
2022-11-30T04:27:17.681Z,97155.88
2022-11-30T04:28:19.969Z,97162.28
2022-11-30T04:29:21.816Z,97156.84
2022-11-30T04:30:23.682Z,97168.78
2022-11-30T04:31:25.752Z,97171.22
2022-11-30T04:32:27.734Z,97171.53
2022-11-30T04:33:30.548Z,97169.88
2022-11-30T04:34:32.510Z,97163.41
2022-11-30T04:35:34.596Z,97164.22
2022-11-30T04:36:36.548Z,97165.84
2022-11-30T04:37:38.410Z,97165.72
2022-11-30T04:38:40.239Z,97173.13
2022-11-30T04:39:42.102Z,97174.91
2022-11-30T04:40:45.054Z,97174.91
2022-11-30T04:41:46.907Z,97175.69
2022-11-30T04:42:48.746Z,97170.03
2022-11-30T04:43:50.696Z,97174.97
2022-11-30T04:44:52.623Z,97174.59
2022-11-30T04:45:54.460Z,97172.97
2022-11-30T04:46:56.375Z,97175.09
2022-11-30T04:47:58.443Z,97179.00
2022-11-30T04:49:00.319Z,97185.50
2022-11-30T04:50:02.326Z,97183.88
2022-11-30T04:51:06.272Z,97186.16
2022-11-30T04:52:08.265Z,97192.41
2022-11-30T04:53:10.689Z,97189.19
2022-11-30T04:54:12.615Z,97188.38
2022-11-30T04:55:14.574Z,97183.50
2022-11-30T04:56:16.526Z,97182.97
2022-11-30T04:57:18.395Z,97187.34
2022-11-30T04:58:20.290Z,97194.69
2022-11-30T04:59:22.235Z,97184.41
2022-11-30T05:00:24.191Z,97189.03
2022-11-30T05:01:26.093Z,97197.19
2022-11-30T05:02:29.825Z,97188.88
2022-11-30T05:03:31.737Z,97190.25
2022-11-30T05:04:33.694Z,97193.47
2022-11-30T05:05:35.790Z,97195.13
2022-11-30T05:06:37.615Z,97192.28
2022-11-30T05:07:40.844Z,97191.19
2022-11-30T05:08:42.718Z,97193.63
2022-11-30T05:09:44.656Z,97188.19
2022-11-30T05:10:51.637Z,97194.94
2022-11-30T05:11:54.877Z,97202.59
2022-11-30T05:12:57.504Z,97195.16
2022-11-30T05:13:59.425Z,97202.63
2022-11-30T05:15:01.265Z,97199.59
2022-11-30T05:16:03.221Z,97195.69
2022-11-30T05:17:05.156Z,97193.78
2022-11-30T05:18:07.026Z,97197.16
2022-11-30T05:19:08.932Z,97195.25
2022-11-30T05:20:11.115Z,97201.50
2022-11-30T05:21:13.126Z,97204.22
2022-11-30T05:22:14.958Z,97195.81
2022-11-30T05:23:17.560Z,97203.28
2022-11-30T05:24:19.420Z,97199.19
2022-11-30T05:25:21.340Z,97203.31
2022-11-30T05:26:23.238Z,97200.47
2022-11-30T05:27:25.102Z,97207.78
2022-11-30T05:28:27.011Z,97204.66
2022-11-30T05:29:28.880Z,97205.47
2022-11-30T05:30:30.741Z,97211.03
2022-11-30T05:31:33.252Z,97208.47
2022-11-30T05:32:35.546Z,97213.97
2022-11-30T05:33:37.424Z,97214.28
2022-11-30T05:34:50.133Z,97208.72
2022-11-30T05:35:52.757Z,97213.44
2022-11-30T05:36:54.672Z,97205.22
2022-11-30T05:37:56.607Z,97208.06
2022-11-30T05:38:58.526Z,97207.13
2022-11-30T05:40:00.475Z,97208.06
2022-11-30T05:41:02.771Z,97206.28
2022-11-30T05:42:04.661Z,97204.00
2022-11-30T05:43:06.695Z,97202.53
2022-11-30T05:44:08.904Z,97209.19
2022-11-30T05:45:11.090Z,97206.50
2022-11-30T05:46:13.066Z,97197.84
2022-11-30T05:47:15.133Z,97202.28
2022-11-30T05:48:16.976Z,97200.22
2022-11-30T05:49:18.894Z,97198.63
2022-11-30T05:50:21.343Z,97201.91
2022-11-30T05:51:23.908Z,97201.91
2022-11-30T05:52:25.845Z,97199.88
2022-11-30T05:53:27.745Z,97197.16
2022-11-30T05:54:29.652Z,97200.44
2022-11-30T05:55:32.523Z,97201.09
2022-11-30T05:56:34.372Z,97200.53
2022-11-30T05:57:37.520Z,97206.91
2022-11-30T05:58:39.464Z,97205.28
2022-11-30T05:59:41.411Z,97203.66
2022-11-30T06:00:43.310Z,97199.88
2022-11-30T06:01:45.361Z,97209.72
2022-11-30T06:02:47.552Z,97208.81
2022-11-30T06:03:49.502Z,97213.66
2022-11-30T06:04:51.364Z,97221.63
2022-11-30T06:05:53.325Z,97218.66
2022-11-30T06:06:58.192Z,97212.28
2022-11-30T06:08:01.008Z,97219.69
2022-11-30T06:09:03.066Z,97215.78
2022-11-30T06:10:05.219Z,97220.69
2022-11-30T06:11:07.456Z,97216.66
2022-11-30T06:12:09.425Z,97223.13
2022-11-30T06:13:11.853Z,97212.84
2022-11-30T06:14:13.644Z,97222.56
2022-11-30T06:15:15.483Z,97223.63
2022-11-30T06:16:17.403Z,97220.47
2022-11-30T06:17:19.303Z,97213.16
2022-11-30T06:18:21.250Z,97212.84
2022-11-30T06:19:23.055Z,97213.38
2022-11-30T06:20:24.939Z,97225.00
2022-11-30T06:21:26.873Z,97225.16
2022-11-30T06:22:28.822Z,97215.69
2022-11-30T06:23:31.086Z,97215.50
2022-11-30T06:24:32.980Z,97214.56
2022-11-30T06:25:35.115Z,97215.50
2022-11-30T06:26:37.018Z,97223.09
2022-11-30T06:27:38.885Z,97220.66
2022-11-30T06:28:45.338Z,97216.47
2022-11-30T06:29:49.712Z,97219.34
2022-11-30T06:30:51.757Z,97218.38
2022-11-30T06:31:53.643Z,97220.81
2022-11-30T06:32:55.576Z,97224.06
2022-11-30T06:33:58.109Z,97222.56
2022-11-30T06:34:59.923Z,97226.91
2022-11-30T06:36:02.158Z,97221.91
2022-11-30T06:37:03.992Z,97224.47
2022-11-30T06:38:05.871Z,97224.47
2022-11-30T06:39:09.506Z,97221.91
2022-11-30T06:40:12.427Z,97222.56
2022-11-30T06:41:14.466Z,97219.34
2022-11-30T06:42:16.412Z,97221.91
2022-11-30T06:43:19.133Z,97222.75
2022-11-30T06:44:21.565Z,97224.22
2022-11-30T06:45:23.570Z,97225.81
2022-11-30T06:46:27.269Z,97221.78
2022-11-30T06:47:29.126Z,97224.47
2022-11-30T06:48:31.099Z,97218.38
2022-11-30T06:49:33.017Z,97223.41
2022-11-30T06:50:34.875Z,97216.63
2022-11-30T06:51:38.037Z,97222.88
2022-11-30T06:52:39.905Z,97216.91
2022-11-30T06:53:43.127Z,97222.06
2022-11-30T06:54:45.447Z,97220.44
2022-11-30T06:55:47.632Z,97224.78
2022-11-30T06:56:49.437Z,97220.72
2022-11-30T06:57:51.348Z,97226.28
2022-11-30T06:58:54.648Z,97218.31
2022-11-30T06:59:57.017Z,97219.56
2022-11-30T07:00:58.863Z,97233.38
2022-11-30T07:02:07.520Z,97231.47
2022-11-30T07:03:11.308Z,97226.47
2022-11-30T07:04:13.300Z,97232.31
2022-11-30T07:05:15.225Z,97234.56
2022-11-30T07:06:17.084Z,97230.78
2022-11-30T07:07:19.053Z,97228.84
2022-11-30T07:08:20.964Z,97239.84
2022-11-30T07:09:22.884Z,97231.16
2022-11-30T07:10:24.849Z,97227.78
2022-11-30T07:11:26.825Z,97234.41
2022-11-30T07:12:28.686Z,97235.09
2022-11-30T07:13:30.527Z,97239.25
2022-11-30T07:14:32.341Z,97238.31
2022-11-30T07:15:34.260Z,97240.75
2022-11-30T07:16:36.213Z,97242.38
2022-11-30T07:17:38.116Z,97245.63
2022-11-30T07:18:40.094Z,97249.81
2022-11-30T07:19:41.997Z,97245.47
2022-11-30T07:20:43.970Z,97255.38
2022-11-30T07:21:45.792Z,97249.44
2022-11-30T07:22:47.761Z,97245.91
2022-11-30T07:24:08.153Z,97251.88
2022-11-30T07:25:28.866Z,97257.97
2022-11-30T07:26:30.956Z,97253.47
2022-11-30T07:27:32.893Z,97256.59
2022-11-30T07:28:36.514Z,97262.59
2022-11-30T07:29:38.417Z,97261.13
2022-11-30T07:30:40.256Z,97250.31
2022-11-30T07:31:42.204Z,97259.78
2022-11-30T07:32:44.080Z,97256.28
2022-11-30T07:33:46.502Z,97263.69
2022-11-30T07:34:48.799Z,97261.66
2022-11-30T07:35:53.119Z,97257.06
2022-11-30T07:36:55.120Z,97259.75
2022-11-30T07:37:57.114Z,97258.94
2022-11-30T07:38:59.020Z,97253.53
2022-11-30T07:40:00.882Z,97258.94
2022-11-30T07:41:02.849Z,97258.53
2022-11-30T07:42:04.811Z,97254.03
2022-11-30T07:43:06.661Z,97257.03
2022-11-30T07:44:09.244Z,97262.53
2022-11-30T07:45:11.367Z,97257.56
2022-11-30T07:46:14.478Z,97256.44
2022-11-30T07:47:17.053Z,97257.13
2022-11-30T07:48:19.053Z,97259.13
2022-11-30T07:49:20.927Z,97255.56
2022-11-30T07:50:22.724Z,97263.03
2022-11-30T07:51:24.622Z,97262.50
2022-11-30T07:52:26.537Z,97258.31
2022-11-30T07:53:28.712Z,97261.97
2022-11-30T07:54:30.720Z,97261.31
2022-11-30T07:55:37.290Z,97260.13
2022-11-30T07:56:39.168Z,97268.94
2022-11-30T07:57:41.015Z,97266.78
2022-11-30T07:58:43.264Z,97261.94
2022-11-30T07:59:45.570Z,97265.97
2022-11-30T08:00:47.777Z,97267.75
2022-11-30T08:01:49.906Z,97266.78
2022-11-30T08:02:52.309Z,97265.41
2022-11-30T08:03:54.088Z,97265.13
2022-11-30T08:04:58.667Z,97263.50
2022-11-30T08:06:04.507Z,97273.00
2022-11-30T08:07:06.370Z,97267.41
2022-11-30T08:08:08.273Z,97270.53
2022-11-30T08:09:15.250Z,97263.75
2022-11-30T08:10:21.263Z,97268.63
2022-11-30T08:11:25.639Z,97266.03
2022-11-30T08:12:27.499Z,97272.94
2022-11-30T08:13:29.529Z,97274.84
2022-11-30T08:14:37.653Z,97275.94
2022-11-30T08:15:52.550Z,97277.31
2022-11-30T08:16:54.554Z,97278.28
2022-11-30T08:17:56.438Z,97284.09
2022-11-30T08:18:58.877Z,97283.16
2022-11-30T08:20:00.762Z,97282.06
2022-11-30T08:21:04.257Z,97282.75
2022-11-30T08:22:06.188Z,97287.47
2022-11-30T08:23:08.050Z,97284.63
2022-11-30T08:24:11.992Z,97282.44
2022-11-30T08:25:13.980Z,97290.03
2022-11-30T08:26:17.499Z,97288.00
2022-11-30T08:27:20.187Z,97293.00
2022-11-30T08:28:22.358Z,97295.41
2022-11-30T08:29:24.262Z,97295.19
2022-11-30T08:30:27.951Z,97287.47
2022-11-30T08:31:32.736Z,97292.47
2022-11-30T08:32:34.673Z,97288.78
2022-11-30T08:33:37.146Z,97296.25
2022-11-30T08:34:39.029Z,97289.47
2022-11-30T08:35:40.915Z,97288.94
2022-11-30T08:36:46.937Z,97293.28
2022-11-30T08:37:52.232Z,97291.09
2022-11-30T08:38:54.306Z,97283.78
2022-11-30T08:39:56.204Z,97293.84
2022-11-30T08:40:58.503Z,97290.47
2022-11-30T08:42:00.892Z,97295.19
2022-11-30T08:43:02.822Z,97288.69
2022-11-30T08:44:04.714Z,97289.22
2022-11-30T08:45:06.917Z,97296.78
2022-11-30T08:46:27.921Z,97296.41
2022-11-30T08:47:31.741Z,97298.75
2022-11-30T08:48:34.068Z,97289.63
2022-11-30T08:49:35.964Z,97286.78
2022-11-30T08:50:37.940Z,97291.63
2022-11-30T08:52:08.889Z,97289.06
2022-11-30T08:53:06.208Z,97293.00
2022-11-30T08:54:08.460Z,97292.19
2022-11-30T08:55:10.351Z,97288.91
2022-11-30T08:56:13.796Z,97286.41
2022-11-30T08:57:17.750Z,97288.06
2022-11-30T08:58:19.682Z,97290.09
2022-11-30T08:59:21.714Z,97284.72
2022-11-30T09:00:23.652Z,97286.88
2022-11-30T09:01:28.442Z,97288.66
2022-11-30T09:02:33.322Z,97290.22
2022-11-30T09:03:35.251Z,97286.72
2022-11-30T09:04:37.079Z,97282.91
2022-11-30T09:05:38.986Z,97287.09
2022-11-30T09:06:42.261Z,97289.97
2022-11-30T09:07:44.149Z,97285.06
2022-11-30T09:08:46.929Z,97284.50
2022-11-30T09:09:49.007Z,97292.63
2022-11-30T09:10:52.373Z,97289.63
2022-11-30T09:11:54.300Z,97291.09
2022-11-30T09:12:56.194Z,97295.72
2022-11-30T09:14:00.138Z,97298.59
2022-11-30T09:15:02.281Z,97291.53
2022-11-30T09:16:04.683Z,97297.22
2022-11-30T09:17:06.635Z,97303.69
2022-11-30T09:18:08.465Z,97309.38
2022-11-30T09:19:10.329Z,97294.72
2022-11-30T09:20:12.508Z,97302.00
2022-11-30T09:21:17.348Z,97299.28
2022-11-30T09:22:19.828Z,97296.41
2022-11-30T09:23:21.592Z,97300.53
2022-11-30T09:24:23.489Z,97300.25
2022-11-30T09:25:25.566Z,97301.44
2022-11-30T09:26:27.539Z,97299.81
2022-11-30T09:27:31.658Z,97301.47
2022-11-30T09:28:33.909Z,97299.06
2022-11-30T09:29:36.758Z,97301.22
2022-11-30T09:30:38.691Z,97303.22
2022-11-30T09:31:40.547Z,97310.81
2022-11-30T09:32:42.503Z,97300.25
2022-11-30T09:33:44.868Z,97302.97
2022-11-30T09:34:47.106Z,97308.63
2022-11-30T09:35:56.730Z,97303.88
2022-11-30T09:36:58.625Z,97308.72
2022-11-30T09:38:00.564Z,97301.38
2022-11-30T09:39:02.435Z,97297.84
2022-11-30T09:40:04.555Z,97300.00
2022-11-30T09:41:11.764Z,97299.69
2022-11-30T09:42:21.055Z,97301.69
2022-11-30T09:43:22.939Z,97299.53
2022-11-30T09:44:27.880Z,97298.81
2022-11-30T09:45:31.599Z,97297.16
2022-11-30T09:46:51.955Z,97299.03
2022-11-30T09:48:02.904Z,97299.16
2022-11-30T09:49:09.368Z,97290.75
2022-11-30T09:50:14.293Z,97291.66
2022-11-30T09:51:36.415Z,97286.78
2022-11-30T09:52:41.809Z,97287.69
2022-11-30T09:53:45.479Z,97285.03
2022-11-30T09:54:48.554Z,97282.53
2022-11-30T09:55:51.938Z,97287.13
2022-11-30T09:56:53.754Z,97277.94
2022-11-30T09:57:58.884Z,97274.13
2022-11-30T09:59:05.054Z,97281.94
2022-11-30T10:00:15.271Z,97287.59
2022-11-30T10:01:18.881Z,97275.88
2022-11-30T10:02:22.877Z,97278.00
2022-11-30T10:03:25.047Z,97272.56
2022-11-30T10:04:28.209Z,97270.63
2022-11-30T10:05:36.096Z,97277.34
2022-11-30T10:06:46.582Z,97276.84
2022-11-30T10:08:07.371Z,97270.72
2022-11-30T10:09:15.305Z,97265.09
2022-11-30T10:10:36.422Z,97269.47
2022-11-30T10:11:38.300Z,97271.91
2022-11-30T10:12:45.359Z,97266.75
2022-11-30T10:13:47.142Z,97270.59
2022-11-30T10:15:12.077Z,97268.94
2022-11-30T10:16:30.075Z,97269.25
2022-11-30T10:17:41.238Z,97264.31
2022-11-30T10:18:53.329Z,97263.44
2022-11-30T10:19:55.202Z,97263.59
2022-11-30T10:21:15.750Z,97263.44
2022-11-30T10:22:17.621Z,97254.00
2022-11-30T10:23:30.695Z,97253.25
2022-11-30T10:24:41.922Z,97263.78
2022-11-30T10:25:58.144Z,97262.19
2022-11-30T10:27:04.193Z,97257.25
2022-11-30T10:28:24.405Z,97254.38
2022-11-30T10:29:31.938Z,97248.09
2022-11-30T10:30:35.950Z,97255.69
2022-11-30T10:31:38.843Z,97253.13
2022-11-30T10:32:42.125Z,97251.34
2022-11-30T10:33:48.711Z,97257.03
2022-11-30T10:34:55.037Z,97254.56
2022-11-30T10:35:59.267Z,97247.03
2022-11-30T10:37:17.525Z,97250.22
2022-11-30T10:38:19.323Z,97245.97
2022-11-30T10:39:25.005Z,97241.63
2022-11-30T10:40:34.795Z,97242.13
2022-11-30T10:41:41.051Z,97245.06
2022-11-30T10:43:01.740Z,97247.28
2022-11-30T10:44:03.662Z,97243.00
2022-11-30T10:45:13.554Z,97243.00
2022-11-30T10:46:20.249Z,97247.28
2022-11-30T10:47:27.504Z,97243.31
2022-11-30T10:48:34.987Z,97242.66
2022-11-30T10:49:38.969Z,97242.13
2022-11-30T10:50:41.015Z,97245.38
2022-11-30T10:51:45.890Z,97242.84
2022-11-30T10:52:55.235Z,97243.19
2022-11-30T10:53:58.352Z,97239.34
2022-11-30T10:55:04.858Z,97239.88
2022-11-30T10:56:10.527Z,97243.75
2022-11-30T10:57:14.872Z,97235.97
2022-11-30T10:58:22.584Z,97238.34
2022-11-30T10:59:34.840Z,97235.25
2022-11-30T11:00:36.798Z,97245.78
2022-11-30T11:01:39.778Z,97236.44
2022-11-30T11:02:49.234Z,97230.59
2022-11-30T11:04:07.059Z,97235.84
2022-11-30T11:05:10.586Z,97242.47
2022-11-30T11:06:24.207Z,97241.53
2022-11-30T11:07:26.227Z,97236.50
2022-11-30T11:08:28.702Z,97226.56
2022-11-30T11:09:30.719Z,97229.50
2022-11-30T11:10:37.360Z,97225.50
2022-11-30T11:11:39.668Z,97227.47
2022-11-30T11:12:46.952Z,97235.28
2022-11-30T11:13:48.795Z,97232.41
2022-11-30T11:15:07.788Z,97233.66
2022-11-30T11:16:12.137Z,97232.78
2022-11-30T11:17:19.793Z,97236.78
2022-11-30T11:18:26.548Z,97241.00
2022-11-30T11:19:35.845Z,97240.38
2022-11-30T11:20:42.838Z,97240.19
2022-11-30T11:21:49.193Z,97237.88
2022-11-30T11:22:51.043Z,97240.41
2022-11-30T11:23:57.207Z,97231.56
2022-11-30T11:25:11.892Z,97232.22
2022-11-30T11:26:20.097Z,97234.19
2022-11-30T11:27:21.949Z,97236.16
2022-11-30T11:28:25.632Z,97230.44
2022-11-30T11:29:32.883Z,97229.81
2022-11-30T11:30:35.870Z,97229.88
2022-11-30T11:31:47.672Z,97231.19
2022-11-30T11:33:09.977Z,97234.56
2022-11-30T11:34:32.098Z,97231.13
2022-11-30T11:35:37.144Z,97232.94
2022-11-30T11:36:39.039Z,97229.69
2022-11-30T11:37:51.263Z,97230.19
2022-11-30T11:38:53.212Z,97231.84
2022-11-30T11:39:56.433Z,97233.59
2022-11-30T11:41:06.626Z,97224.41
2022-11-30T11:42:19.155Z,97230.75
2022-11-30T11:43:25.009Z,97230.47
2022-11-30T11:44:28.354Z,97234.78
2022-11-30T11:45:33.560Z,97223.50
2022-11-30T11:46:38.078Z,97229.84
2022-11-30T11:47:40.973Z,97232.25
2022-11-30T11:48:56.598Z,97224.19
2022-11-30T11:50:06.286Z,97231.63
2022-11-30T11:51:09.551Z,97230.53
2022-11-30T11:52:11.408Z,97223.25
2022-11-30T11:53:16.034Z,97232.31
2022-11-30T11:54:28.994Z,97227.00
2022-11-30T11:55:30.931Z,97225.72
2022-11-30T11:56:34.847Z,97223.97
2022-11-30T11:57:40.506Z,97228.81
2022-11-30T11:58:42.476Z,97228.31
2022-11-30T11:59:47.300Z,97221.06
2022-11-30T12:00:50.987Z,97223.66
2022-11-30T12:01:59.617Z,97217.38
2022-11-30T12:03:14.625Z,97226.59
2022-11-30T12:04:35.119Z,97223.38
2022-11-30T12:05:38.614Z,97226.63
2022-11-30T12:06:42.118Z,97216.94
2022-11-30T12:08:02.356Z,97221.63
2022-11-30T12:09:08.140Z,97221.13
2022-11-30T12:10:50.468Z,97216.63
2022-11-30T12:11:45.488Z,97219.19
2022-11-30T12:12:51.994Z,97214.00
2022-11-30T12:13:56.468Z,97217.59
2022-11-30T12:14:58.496Z,97219.84
2022-11-30T12:16:12.549Z,97217.44
2022-11-30T12:17:29.844Z,97218.09
2022-11-30T12:18:40.019Z,97222.44
2022-11-30T12:20:04.336Z,97219.56
2022-11-30T12:21:13.341Z,97217.63
2022-11-30T12:22:23.289Z,97214.22
2022-11-30T12:23:25.092Z,97215.00
2022-11-30T12:24:52.123Z,97215.94
2022-11-30T12:25:53.960Z,97214.50
2022-11-30T12:26:55.766Z,97213.06
2022-11-30T12:28:03.991Z,97203.69
2022-11-30T12:29:05.842Z,97206.63
2022-11-30T12:30:13.729Z,97208.22
2022-11-30T12:31:17.543Z,97204.34
2022-11-30T12:32:19.547Z,97204.19